Time;durP1;ratioP1;P1;durP2;ratioP2;P2;SDS_P1;SDS_P2;PMS_P1;PMS_P2;Temp;Humidity;BMP_temperature;BMP_pressure;BME280_temperature;BME280_humidity;BME280_pressure;Samples;Min_cycle;Max_cycle;Signal;HPM_P1;HPM_P2
2022/05/23 00:01:48;;;;;;;3.30;3.00;;;;;;;18.62;42.80;94493.31;5070063;28;20212;-66
2022/05/23 00:04:14;;;;;;;4.47;2.90;;;;;;;18.54;42.84;94490.09;5081868;28;20243;-67
2022/05/23 00:06:39;;;;;;;6.93;3.08;;;;;;;18.55;42.77;94502.38;5068422;28;20254;-67
2022/05/23 00:09:06;;;;;;;3.35;3.08;;;;;;;18.55;42.55;94491.72;5068546;28;20760;-68
2022/05/23 00:11:31;;;;;;;5.80;2.78;;;;;;;18.43;43.09;94499.59;5081209;28;20200;-66
2022/05/23 00:13:57;;;;;;;2.97;2.78;;;;;;;18.44;42.89;94502.03;5068032;28;20238;-68
2022/05/23 00:16:26;;;;;;;3.72;2.90;;;;;;;18.50;42.68;94490.53;5081513;28;20222;-68
2022/05/23 00:18:52;;;;;;;4.28;3.10;;;;;;;18.45;42.83;94487.69;5069999;28;20219;-68
2022/05/23 00:21:18;;;;;;;3.53;3.22;;;;;;;18.52;43.15;94495.63;5077798;28;20363;-66
2022/05/23 00:23:44;;;;;;;3.42;3.10;;;;;;;18.49;43.43;94488.88;5071291;28;20223;-68
2022/05/23 00:26:12;;;;;;;4.05;3.13;;;;;;;18.32;43.76;94485.09;5072296;28;20211;-69
2022/05/23 00:28:38;;;;;;;3.30;3.00;;;;;;;18.25;44.21;94487.78;5086262;28;20273;-63
2022/05/23 00:31:06;;;;;;;4.10;3.50;;;;;;;18.15;44.56;94489.25;5073442;28;20224;-66
2022/05/23 00:36:15;;;;;;;3.13;2.92;;;;;;;18.05;45.10;94481.75;5090495;28;20237;-63
2022/05/23 00:38:40;;;;;;;4.43;3.35;;;;;;;17.89;45.55;94482.22;5090670;28;20225;-63
2022/05/23 00:44:06;;;;;;;3.42;3.13;;;;;;;17.88;46.01;94492.03;5089818;28;20261;-67
2022/05/23 00:46:32;;;;;;;4.03;3.40;;;;;;;17.84;46.17;94491.63;5092467;28;20616;-65
2022/05/23 00:49:01;;;;;;;6.28;3.35;;;;;;;17.75;46.82;94490.22;5075107;28;20216;-68
2022/05/23 00:51:28;;;;;;;3.53;3.22;;;;;;;17.66;47.19;94494.09;5076078;28;20277;-66
2022/05/23 00:53:56;;;;;;;4.10;3.67;;;;;;;17.63;47.46;94494.53;5088356;28;20466;-65
2022/05/23 00:56:26;;;;;;;3.85;3.50;;;;;;;17.59;47.64;94503.94;5073928;28;20200;-65
2022/05/23 00:58:58;;;;;;;3.90;3.58;;;;;;;17.35;48.49;94495.59;5088133;28;20203;-67
2022/05/23 01:01:27;;;;;;;3.38;3.15;;;;;;;17.44;48.44;94498.84;5088145;28;20311;-66
2022/05/23 01:03:53;;;;;;;4.10;3.80;;;;;;;17.50;48.02;94507.84;5088814;28;20231;-61
2022/05/23 01:06:19;;;;;;;5.40;3.83;;;;;;;17.48;47.97;94500.09;5088368;28;20886;-65
2022/05/23 01:08:46;;;;;;;4.00;3.70;;;;;;;17.27;48.73;94505.59;5071212;28;20220;-67
2022/05/23 01:11:13;;;;;;;5.85;3.75;;;;;;;17.31;48.75;94504.19;5090458;28;20200;-66
2022/05/23 01:13:38;;;;;;;3.70;3.40;;;;;;;17.29;48.74;94498.25;5070551;28;20261;-62
2022/05/23 01:16:04;;;;;;;3.53;3.22;;;;;;;17.27;48.79;94498.47;5071401;28;20219;-61
2022/05/23 01:18:31;;;;;;;4.38;3.25;;;;;;;17.33;48.64;94499.47;5071071;28;20223;-69
2022/05/23 01:20:59;;;;;;;3.88;3.42;;;;;;;17.40;48.34;94500.28;5075339;28;20220;-65
2022/05/23 01:24:02;;;;;;;4.45;3.40;;;;;;;17.32;48.31;94485.38;5060514;28;20233;-68
2022/05/23 01:26:27;;;;;;;3.90;3.58;;;;;;;17.17;48.92;94480.28;5059418;28;20301;-67
2022/05/23 01:28:53;;;;;;;3.80;3.50;;;;;;;17.08;49.16;94470.91;5063003;28;20209;-69
2022/05/23 01:31:18;;;;;;;4.38;3.58;;;;;;;17.03;49.35;94470.69;5085054;28;20251;-61
2022/05/23 01:33:44;;;;;;;4.93;3.75;;;;;;;17.07;49.16;94479.06;5070078;28;20240;-66
2022/05/23 01:36:14;;;;;;;4.25;3.85;;;;;;;17.04;49.37;94474.97;5065369;28;20224;-67
2022/05/23 01:38:42;;;;;;;4.07;3.67;;;;;;;17.11;49.24;94477.63;5079541;28;20215;-66
2022/05/23 01:41:09;;;;;;;6.97;3.90;;;;;;;17.10;49.32;94473.31;5074923;28;20420;-67
2022/05/23 01:43:35;;;;;;;3.58;3.22;;;;;;;17.06;49.48;94472.13;5072972;28;20223;-64
2022/05/23 01:46:01;;;;;;;4.68;3.53;;;;;;;16.96;49.63;94468.03;5069605;28;20225;-65
2022/05/23 01:48:27;;;;;;;4.13;3.60;;;;;;;16.95;49.87;94469.06;5062489;28;20601;-67
2022/05/23 01:50:52;;;;;;;4.22;3.40;;;;;;;16.97;49.73;94479.44;5080943;28;20216;-62
2022/05/23 01:53:18;;;;;;;3.63;3.30;;;;;;;16.93;49.72;94479.06;5092401;28;20206;-65
2022/05/23 01:55:43;;;;;;;4.45;4.07;;;;;;;16.88;49.96;94486.00;5071541;28;20195;-66
2022/05/23 01:58:09;;;;;;;3.95;3.55;;;;;;;16.70;50.61;94489.22;5076037;28;20242;-63
2022/05/23 02:03:19;;;;;;;5.45;3.53;;;;;;;16.62;51.17;94478.78;5082045;28;20236;-62
2022/05/23 02:05:45;;;;;;;4.03;3.72;;;;;;;16.66;50.87;94480.03;5073076;28;20219;-69
2022/05/23 02:08:10;;;;;;;4.45;3.90;;;;;;;16.71;50.78;94473.09;5077722;28;20219;-67
2022/05/23 02:10:36;;;;;;;4.57;4.22;;;;;;;16.71;50.77;94478.41;5091934;28;20219;-66
2022/05/23 02:13:02;;;;;;;4.47;4.10;;;;;;;16.63;50.91;94475.13;5088006;28;20224;-68
2022/05/23 02:15:31;;;;;;;4.05;3.65;;;;;;;16.66;50.90;94482.69;5077291;28;20227;-64
2022/05/23 02:17:58;;;;;;;4.20;3.78;;;;;;;16.59;51.22;94476.53;5069410;28;20228;-61
2022/05/23 02:20:24;;;;;;;4.05;3.63;;;;;;;16.62;50.91;94476.94;5075281;28;20399;-66
2022/05/23 02:22:53;;;;;;;4.03;3.50;;;;;;;16.65;50.86;94470.41;5073777;28;20205;-61
2022/05/23 02:25:19;;;;;;;4.63;4.20;;;;;;;16.56;51.29;94472.44;5068515;28;20252;-64
2022/05/23 02:27:47;;;;;;;4.75;4.35;;;;;;;16.65;50.98;94481.03;5072358;28;20244;-62
2022/05/23 02:30:13;;;;;;;5.00;4.50;;;;;;;16.65;50.98;94481.88;5071774;28;20228;-65
2022/05/23 02:32:38;;;;;;;4.57;4.18;;;;;;;16.61;50.68;94480.63;5073778;28;20246;-68
2022/05/23 02:35:04;;;;;;;4.30;3.90;;;;;;;16.56;50.71;94474.28;5070188;28;20199;-69
2022/05/23 02:37:30;;;;;;;4.60;4.20;;;;;;;16.67;50.65;94484.31;5074133;28;20240;-61
2022/05/23 02:39:55;;;;;;;5.60;4.22;;;;;;;16.67;50.75;94481.66;5069391;28;20223;-61
2022/05/23 02:42:21;;;;;;;4.65;4.28;;;;;;;16.69;50.81;94488.41;5067583;28;20227;-61
2022/05/23 02:44:49;;;;;;;4.40;4.00;;;;;;;16.62;51.04;94482.25;5071913;28;20228;-68
2022/05/23 02:47:15;;;;;;;4.82;4.43;;;;;;;16.71;50.94;94486.38;5072427;28;20204;-66
2022/05/23 02:49:40;;;;;;;4.82;4.15;;;;;;;16.69;51.16;94490.25;5080106;28;20315;-66
2022/05/23 02:52:06;;;;;;;4.40;4.00;;;;;;;16.66;51.25;94483.50;5063781;28;20265;-61
2022/05/23 02:54:32;;;;;;;4.53;4.13;;;;;;;16.56;51.43;94485.72;5079634;28;20224;-61
2022/05/23 02:56:58;;;;;;;7.07;4.65;;;;;;;16.62;51.27;94487.56;5068218;28;20320;-67
2022/05/23 02:59:23;;;;;;;6.82;4.60;;;;;;;16.62;51.35;94476.94;5071988;28;20200;-68
2022/05/23 03:04:33;;;;;;;6.57;4.53;;;;;;;16.59;51.32;94479.19;5087038;28;20238;-64
2022/05/23 03:06:58;;;;;;;4.82;4.28;;;;;;;16.62;51.30;94476.94;5071091;28;20232;-64
2022/05/23 03:09:24;;;;;;;5.65;4.82;;;;;;;16.65;51.43;94483.69;5075842;28;20223;-68
2022/05/23 03:11:49;;;;;;;5.53;4.95;;;;;;;16.53;51.92;94478.16;5083249;28;20220;-67
2022/05/23 03:14:15;;;;;;;7.25;4.80;;;;;;;16.57;51.65;94473.25;5074014;28;20200;-67
2022/05/23 03:16:40;;;;;;;5.60;4.97;;;;;;;16.56;51.62;94477.75;5051892;28;20292;-66
2022/05/23 03:19:06;;;;;;;5.97;4.82;;;;;;;16.56;51.81;94480.41;5089113;28;20249;-67
2022/05/23 03:26:59;;;;;;;5.38;4.60;;;;;;;16.46;52.07;94454.25;5085785;28;20227;-66
2022/05/23 03:29:24;;;;;;;9.07;5.55;;;;;;;16.43;52.21;94454.66;5073548;28;20204;-67
2022/05/23 03:31:50;;;;;;;5.18;4.70;;;;;;;16.55;51.54;94454.91;5068705;28;20200;-67
2022/05/23 03:34:16;;;;;;;8.27;5.80;;;;;;;16.56;51.51;94467.16;5079122;28;20222;-67
2022/05/23 03:36:44;;;;;;;5.70;5.15;;;;;;;16.57;51.81;94468.75;5070205;28;20279;-66
2022/05/23 03:39:10;;;;;;;6.20;5.38;;;;;;;16.51;51.75;94474.88;5070731;28;20217;-64
2022/05/23 03:41:35;;;;;;;6.15;5.55;;;;;;;16.50;51.78;94474.06;5067571;28;20200;-66
2022/05/23 03:44:01;;;;;;;10.98;5.72;;;;;;;16.58;51.82;94470.41;5069707;28;20211;-64
2022/05/23 03:46:28;;;;;;;6.50;5.88;;;;;;;16.44;52.27;94460.78;5081076;28;20328;-67
2022/05/23 03:48:53;;;;;;;6.45;5.85;;;;;;;16.44;51.90;94448.34;5073052;28;20592;-67
2022/05/23 03:51:19;;;;;;;6.45;5.68;;;;;;;16.51;51.94;94456.31;5086967;28;20226;-67
2022/05/23 03:53:44;;;;;;;9.35;6.28;;;;;;;16.56;51.84;94471.63;5062548;28;20212;-65
2022/05/23 03:56:10;;;;;;;6.38;5.78;;;;;;;16.53;51.89;94470.19;5069905;28;20196;-62
2022/05/23 03:58:36;;;;;;;6.57;5.80;;;;;;;16.62;51.99;94481.44;5071590;28;20302;-65
2022/05/23 04:01:08;;;;;;;7.43;5.45;;;;;;;16.66;51.61;94478.19;5073961;28;20307;-62
2022/05/23 04:03:35;;;;;;;7.15;5.88;;;;;;;16.68;51.82;94476.16;5070677;28;20228;-68
2022/05/23 04:06:01;;;;;;;9.32;6.28;;;;;;;16.69;51.60;94482.28;5071175;28;20232;-61
2022/05/23 04:08:26;;;;;;;7.68;5.90;;;;;;;16.80;51.50;94476.38;5061471;28;20257;-67
2022/05/23 04:10:52;;;;;;;10.45;5.93;;;;;;;16.82;51.47;94470.88;5075839;28;20227;-67
2022/05/23 04:13:17;;;;;;;6.05;5.38;;;;;;;16.78;51.09;94453.72;5084581;28;20212;-66
2022/05/23 04:15:43;;;;;;;6.75;5.18;;;;;;;16.93;51.06;94463.13;5077460;28;20254;-64
2022/05/23 04:18:09;;;;;;;9.23;5.53;;;;;;;17.09;50.46;94467.19;5069782;28;20236;-68
2022/05/23 04:20:34;;;;;;;7.20;5.80;;;;;;;17.16;50.41;94476.00;5071276;28;20192;-66
2022/05/23 04:23:00;;;;;;;8.25;6.20;;;;;;;17.29;49.80;94475.16;5070588;28;20295;-65
2022/05/23 04:25:26;;;;;;;7.63;5.35;;;;;;;18.23;47.58;94473.06;5069390;28;20224;-67
2022/05/23 04:27:52;;;;;;;7.00;5.30;;;;;;;19.09;45.48;94461.06;5093239;28;20339;-68
2022/05/23 04:30:17;;;;;;;7.38;6.30;;;;;;;18.41;47.12;94453.72;5073527;28;20219;-66
2022/05/23 04:35:27;;;;;;;7.45;6.28;;;;;;;17.40;49.87;94463.06;5091616;28;20211;-65
2022/05/23 04:37:54;;;;;;;7.47;6.68;;;;;;;17.43;50.13;94470.66;5089684;28;20224;-61
2022/05/23 04:40:25;;;;;;;10.13;6.80;;;;;;;17.46;49.81;94472.88;5085361;28;20223;-64
2022/05/23 04:42:50;;;;;;;10.00;6.35;;;;;;;17.37;50.22;94463.47;5083630;28;20238;-64
2022/05/23 04:45:16;;;;;;;10.02;6.32;;;;;;;17.31;51.44;94480.25;5084393;28;20232;-66
2022/05/23 04:50:27;;;;;;;8.43;6.50;;;;;;;17.37;51.50;94460.81;5087658;28;20262;-64
2022/05/23 04:52:54;;;;;;;10.55;6.82;;;;;;;17.45;51.26;94451.81;5068451;28;20200;-64
2022/05/23 04:55:20;;;;;;;8.07;6.40;;;;;;;17.28;51.89;94446.13;5067184;28;20232;-66
2022/05/23 04:57:46;;;;;;;8.75;6.75;;;;;;;17.50;51.07;94449.34;5072538;28;20244;-61
2022/05/23 05:00:18;;;;;;;8.20;6.60;;;;;;;17.80;50.28;94447.03;5057587;28;20223;-68
2022/05/23 05:02:44;;;;;;;10.75;6.78;;;;;;;17.95;50.09;94450.25;5068092;28;20224;-66
2022/05/23 05:05:11;;;;;;;10.88;6.65;;;;;;;17.95;50.62;94455.59;5084038;28;20216;-68
2022/05/23 05:07:36;;;;;;;11.23;6.75;;;;;;;18.32;49.76;94450.50;5091389;28;20224;-65
2022/05/23 05:10:03;;;;;;;9.07;7.03;;;;;;;18.39;49.64;94451.28;5092348;28;20269;-68
2022/05/23 05:12:29;;;;;;;9.50;6.70;;;;;;;18.27;50.56;94451.13;5093254;28;20228;-64
2022/05/23 05:14:54;;;;;;;10.30;6.68;;;;;;;18.46;50.13;94443.25;5090902;28;20273;-68
2022/05/23 05:17:20;;;;;;;6.28;4.30;;;;;;;18.46;48.49;94436.06;5073363;28;20227;-67
2022/05/23 05:19:45;;;;;;;7.57;5.68;;;;;;;18.39;48.68;94432.66;5076098;28;20215;-64
2022/05/23 05:22:11;;;;;;;8.65;6.65;;;;;;;18.25;50.07;94437.22;5076897;28;20230;-69
2022/05/23 05:24:36;;;;;;;9.02;7.75;;;;;;;18.16;50.42;94441.16;5075132;28;20220;-68
2022/05/23 05:27:02;;;;;;;8.35;6.60;;;;;;;18.18;50.72;94443.63;5081617;28;20220;-69
2022/05/23 05:29:28;;;;;;;8.43;6.72;;;;;;;18.00;51.26;94434.50;5091277;28;20196;-67
2022/05/23 05:31:59;;;;;;;9.10;7.32;;;;;;;18.18;51.21;94427.66;5081915;28;20199;-65
2022/05/23 05:34:32;;;;;;;11.82;7.78;;;;;;;18.25;50.93;94431.09;5078275;28;20216;-64
2022/05/23 05:37:05;;;;;;;10.13;7.97;;;;;;;18.34;50.84;94419.19;5077410;28;20240;-61
2022/05/23 05:39:34;;;;;;;6.15;4.22;;;;;;;18.37;45.82;94421.41;5083869;28;20239;-68
2022/05/23 05:42:05;;;;;;;9.27;5.47;;;;;;;18.29;48.88;94435.78;5073418;28;20213;-67
2022/05/23 05:44:35;;;;;;;8.85;6.30;;;;;;;18.33;48.73;94425.50;5073654;28;20216;-61
2022/05/23 05:47:06;;;;;;;7.55;3.78;;;;;;;18.60;44.34;94436.78;5091512;28;20240;-65
2022/05/23 05:49:37;;;;;;;6.07;2.65;;;;;;;18.70;42.11;94444.31;5074272;28;20296;-64
2022/05/23 05:52:05;;;;;;;3.47;2.70;;;;;;;18.79;41.30;94451.06;5093602;28;20741;-67
2022/05/23 05:54:32;;;;;;;4.18;1.90;;;;;;;18.85;41.01;94452.03;5073223;28;20219;-68
2022/05/23 05:57:00;;;;;;;3.00;1.85;;;;;;;19.00;40.87;94452.50;5069075;28;20587;-65
2022/05/23 05:59:26;;;;;;;5.55;2.78;;;;;;;19.10;40.98;94447.50;5091904;28;20257;-64
2022/05/23 06:01:52;;;;;;;4.85;2.63;;;;;;;19.14;41.94;94454.06;5077280;28;20204;-61
2022/05/23 06:04:17;;;;;;;3.67;2.20;;;;;;;19.16;41.67;94460.00;5080787;28;20303;-68
2022/05/23 06:12:11;;;;;;;2.88;1.95;;;;;;;19.56;39.82;94451.59;5085627;28;20254;-66
2022/05/23 06:14:37;;;;;;;6.40;2.60;;;;;;;19.56;39.71;94442.78;5074456;28;20227;-62
2022/05/23 06:17:06;;;;;;;3.53;2.42;;;;;;;19.78;39.95;94441.34;5073420;28;20261;-67
2022/05/23 06:19:45;;;;;;;5.38;2.58;;;;;;;19.89;40.00;94436.28;5068017;28;20220;-62
2022/05/23 06:22:11;;;;;;;4.40;2.65;;;;;;;20.05;39.44;94438.38;5062145;28;20223;-61
2022/05/23 06:24:37;;;;;;;4.90;2.10;;;;;;;20.04;38.92;94428.72;5070509;28;20708;-62
2022/05/23 06:27:06;;;;;;;3.30;2.20;;;;;;;20.05;39.03;94425.81;5067707;28;20227;-62
2022/05/23 06:29:32;;;;;;;3.08;2.10;;;;;;;19.98;39.68;94427.75;5087895;28;20200;-67
2022/05/23 06:31:57;;;;;;;5.40;3.25;;;;;;;19.96;39.96;94418.34;5071637;28;20210;-66
2022/05/23 06:34:23;;;;;;;3.88;2.30;;;;;;;19.87;40.07;94414.38;5081263;28;20220;-69
2022/05/23 06:36:48;;;;;;;3.75;2.15;;;;;;;19.91;39.93;94415.53;5080620;28;20240;-61
2022/05/23 06:39:14;;;;;;;5.88;2.30;;;;;;;19.77;40.21;94404.22;5081163;28;20223;-68
2022/05/23 06:41:39;;;;;;;3.38;2.33;;;;;;;19.65;40.87;94411.31;5077171;28;20238;-62
2022/05/23 06:44:05;;;;;;;5.00;2.30;;;;;;;19.71;39.88;94407.78;5089581;28;20242;-61
2022/05/23 06:46:30;;;;;;;4.43;2.00;;;;;;;19.78;39.05;94409.34;5079509;28;20231;-62
2022/05/23 06:48:56;;;;;;;3.00;2.13;;;;;;;19.80;38.76;94393.91;5071207;28;20228;-64
2022/05/23 06:51:21;;;;;;;4.68;2.55;;;;;;;19.81;38.89;94405.41;5072379;28;20289;-65
2022/05/23 06:53:47;;;;;;;4.20;2.60;;;;;;;19.87;38.68;94404.50;5078720;28;20299;-67
2022/05/23 06:56:12;;;;;;;3.90;2.28;;;;;;;19.94;38.00;94380.38;5074839;28;20204;-66
2022/05/23 06:58:38;;;;;;;3.58;2.15;;;;;;;20.05;37.17;94406.34;5073520;28;20223;-68
2022/05/23 07:01:05;;;;;;;5.05;2.25;;;;;;;20.09;36.85;94401.34;5069153;28;20553;-65
2022/05/23 07:03:30;;;;;;;4.13;2.03;;;;;;;20.27;36.77;94402.13;5070525;28;20216;-68
2022/05/23 07:14:08;;;;;;;4.80;2.13;;;;;;;20.68;36.26;94400.50;5088732;28;20261;-68
2022/05/23 07:16:34;;;;;;;5.00;2.60;;;;;;;20.81;35.62;94406.72;5068997;28;20228;-66
2022/05/23 07:19:01;;;;;;;3.25;2.00;;;;;;;20.81;35.69;94396.03;5068610;28;20220;-67
2022/05/23 07:21:26;;;;;;;4.75;1.92;;;;;;;20.95;35.73;94405.44;5069833;28;20231;-67
2022/05/23 07:23:52;;;;;;;4.95;2.15;;;;;;;20.84;35.53;94415.06;5072577;28;20278;-66
2022/05/23 07:26:19;;;;;;;4.53;2.58;;;;;;;20.69;36.15;94402.16;5091038;28;20207;-67
2022/05/23 07:28:46;;;;;;;3.88;2.20;;;;;;;20.74;36.46;94403.31;5071761;28;20254;-67
2022/05/23 07:31:12;;;;;;;4.82;1.90;;;;;;;20.79;36.05;94404.25;5069576;28;20224;-68
2022/05/23 07:33:39;;;;;;;4.72;2.10;;;;;;;20.83;35.73;94412.66;5086346;28;20273;-67
2022/05/23 07:36:06;;;;;;;3.35;2.13;;;;;;;20.74;36.13;94401.47;5073547;28;20284;-69
2022/05/23 07:38:32;;;;;;;3.80;2.17;;;;;;;20.75;36.81;94402.28;5061721;28;20207;-67
2022/05/23 07:40:59;;;;;;;4.53;2.10;;;;;;;20.78;36.70;94399.16;5070374;28;20283;-61
2022/05/23 07:43:25;;;;;;;5.25;2.40;;;;;;;20.86;36.61;94399.63;5054996;28;20303;-66
2022/05/23 07:45:52;;;;;;;3.83;2.00;;;;;;;20.89;36.28;94393.81;5072483;28;20298;-67
2022/05/23 07:48:18;;;;;;;5.47;2.67;;;;;;;21.00;36.17;94396.75;5069231;28;20231;-68
2022/05/23 07:50:45;;;;;;;3.88;2.03;;;;;;;21.12;34.77;94395.69;5065521;28;20230;-69
2022/05/23 08:01:24;;;;;;;3.05;1.95;;;;;;;21.26;33.50;94396.28;5084291;28;20239;-66
2022/05/23 08:03:50;;;;;;;3.42;2.13;;;;;;;21.23;33.73;94406.63;5089826;28;20220;-62
2022/05/23 08:06:16;;;;;;;2.80;2.03;;;;;;;21.44;34.51;94399.88;5073414;28;20258;-68
2022/05/23 08:08:42;;;;;;;4.25;2.17;;;;;;;21.45;32.97;94398.84;5068781;28;20228;-69
2022/05/23 08:11:08;;;;;;;3.80;2.38;;;;;;;21.41;32.80;94397.69;5055771;28;20201;-61
2022/05/23 08:13:40;;;;;;;3.20;2.20;;;;;;;21.51;33.07;94404.06;5051329;28;20309;-61
2022/05/23 08:16:06;;;;;;;3.58;2.17;;;;;;;21.55;33.69;94405.25;5055995;28;20222;-65
2022/05/23 08:18:32;;;;;;;5.03;1.80;;;;;;;21.60;33.96;94391.16;5080284;28;20220;-65
2022/05/23 08:20:58;;;;;;;2.40;1.85;;;;;;;21.55;33.15;94394.53;5078622;28;20223;-68
2022/05/23 08:23:24;;;;;;;4.60;1.85;;;;;;;21.59;32.30;94390.34;5084775;28;20253;-65
2022/05/23 08:25:49;;;;;;;4.15;1.63;;;;;;;21.60;32.37;94401.88;5083813;28;20204;-61
2022/05/23 08:28:15;;;;;;;4.10;1.90;;;;;;;21.72;33.69;94399.16;5056765;28;20223;-66
2022/05/23 08:30:40;;;;;;;2.63;1.55;;;;;;;21.87;33.12;94406.72;5083027;28;20227;-69
2022/05/23 08:33:06;;;;;;;2.30;1.60;;;;;;;21.73;32.29;94401.63;5076454;28;20224;-67
2022/05/23 08:35:32;;;;;;;2.60;1.80;;;;;;;21.82;32.35;94402.06;5069670;28;20260;-62
2022/05/23 08:38:01;;;;;;;4.53;1.60;;;;;;;21.96;31.79;94392.69;5087131;28;20278;-66
2022/05/23 08:41:08;;;;;;;3.58;1.88;;;;;;;22.43;31.81;94389.06;5074777;28;20224;-65
2022/05/23 08:44:10;;;;;;;3.33;1.85;;;;;;;22.42;31.11;94388.22;5074732;28;20241;-61
2022/05/23 08:47:05;;;;;;;3.83;1.63;;;;;;;22.27;30.58;94374.56;5058163;28;20216;-61
2022/05/23 08:49:36;;;;;;;3.83;1.83;;;;;;;22.11;30.32;94397.53;4995864;28;20253;-67
2022/05/23 08:52:10;;;;;;;2.75;1.80;;;;;;;22.24;30.25;94389.25;4992017;28;20300;-61
2022/05/23 08:54:46;;;;;;;2.85;1.60;;;;;;;22.42;30.52;94388.22;4974804;28;20251;-66
2022/05/23 08:57:32;;;;;;;2.05;1.77;;;;;;;22.64;30.55;94395.56;5003669;28;20241;-68
2022/05/23 09:00:04;;;;;;;5.43;1.85;;;;;;;22.73;30.28;94385.28;4991102;28;20222;-68
2022/05/23 09:02:50;;;;;;;2.47;1.60;;;;;;;22.70;29.89;94383.09;4975009;28;20200;-69
2022/05/23 09:05:20;;;;;;;3.65;1.60;;;;;;;22.71;29.90;94369.44;4996805;28;20617;-69
2022/05/23 09:07:56;;;;;;;2.65;1.70;;;;;;;22.90;28.61;94357.41;5023507;28;20284;-68
2022/05/23 09:10:23;;;;;;;4.15;2.08;;;;;;;22.80;28.66;94367.16;5008661;28;20244;-68
2022/05/23 09:12:53;;;;;;;7.03;2.10;;;;;;;22.87;29.58;94382.03;5012219;28;20245;-62
2022/05/23 09:15:23;;;;;;;3.05;1.58;;;;;;;22.96;28.96;94365.53;5030459;28;20249;-62
2022/05/23 09:17:56;;;;;;;2.55;1.60;;;;;;;23.00;28.45;94356.78;5028326;28;20222;-62
2022/05/23 09:20:48;;;;;;;2.70;1.83;;;;;;;23.08;29.04;94374.34;5027065;28;20333;-62
2022/05/23 09:23:54;;;;;;;4.18;1.73;;;;;;;22.84;28.22;94358.38;5020682;28;20214;-66
2022/05/23 09:26:29;;;;;;;3.40;1.80;;;;;;;22.89;29.14;94357.66;5032726;28;20231;-67
2022/05/23 09:28:55;;;;;;;3.22;1.63;;;;;;;22.84;29.16;94357.59;5074121;28;20203;-61
2022/05/23 09:31:40;;;;;;;3.70;1.92;;;;;;;22.99;27.90;94363.22;5074814;28;20230;-61
2022/05/23 09:34:06;;;;;;;2.83;1.75;;;;;;;23.10;27.68;94343.53;5073475;28;20220;-62
2022/05/23 09:36:38;;;;;;;6.95;1.50;;;;;;;23.52;28.25;94348.41;5070617;28;20240;-67
2022/05/23 09:39:20;;;;;;;2.28;1.60;;;;;;;23.77;28.21;94361.38;5061882;28;20720;-62
2022/05/23 09:47:45;;;;;;;2.30;2.00;;;;;;;23.33;29.31;94360.47;5086324;28;20272;-68
2022/05/23 09:50:13;;;;;;;3.35;1.70;;;;;;;23.05;29.28;94364.13;5073209;28;20199;-68
2022/05/23 09:52:47;;;;;;;4.75;2.05;;;;;;;23.06;29.72;94355.00;5070763;28;20227;-66
2022/05/23 09:55:34;;;;;;;3.53;2.35;;;;;;;23.15;30.18;94358.06;5075643;28;20219;-68
2022/05/23 09:58:06;;;;;;;2.83;1.95;;;;;;;23.23;29.79;94352.28;5068603;28;20219;-61
2022/05/23 10:00:35;;;;;;;3.75;2.60;;;;;;;23.28;29.74;94361.25;5077802;28;20219;-65
2022/05/23 10:03:19;;;;;;;3.25;2.05;;;;;;;23.16;29.44;94359.72;5076190;28;20223;-67
2022/05/23 10:05:50;;;;;;;2.05;1.90;;;;;;;23.28;28.96;94345.16;5078788;28;20243;-63
2022/05/23 10:08:27;;;;;;;3.15;2.30;;;;;;;23.74;29.20;94353.03;5086787;28;20310;-61
2022/05/23 10:11:02;;;;;;;2.85;2.00;;;;;;;24.06;28.67;94347.75;5085023;28;20228;-65
2022/05/23 10:13:34;;;;;;;4.18;2.30;;;;;;;23.90;28.88;94359.38;5093474;28;20230;-61
2022/05/23 10:16:09;;;;;;;2.15;1.80;;;;;;;23.41;29.45;94356.56;5091461;28;20621;-61
2022/05/23 10:18:51;;;;;;;3.28;1.98;;;;;;;23.56;29.05;94354.09;5068506;28;20251;-65
2022/05/23 10:21:26;;;;;;;2.58;2.13;;;;;;;23.66;28.48;94340.00;5074015;28;20231;-66
2022/05/23 10:24:18;;;;;;;2.40;1.60;;;;;;;23.75;28.44;94358.13;5085197;28;20217;-66
2022/05/23 10:26:59;;;;;;;3.80;2.30;;;;;;;24.02;28.41;94341.25;5071490;28;20281;-69
2022/05/23 10:29:55;;;;;;;2.30;2.10;;;;;;;24.46;28.41;94337.69;5082218;28;20192;-62
2022/05/23 10:32:43;;;;;;;3.03;1.70;;;;;;;24.89;27.79;94336.72;5077094;28;20688;-68
2022/05/23 10:35:28;;;;;;;1.60;1.50;;;;;;;24.91;26.64;94326.50;5059073;28;20204;-61
2022/05/23 10:42:07;;;;;;;2.25;1.60;;;;;;;24.81;26.47;94326.44;5074984;28;20339;-62
2022/05/23 10:43:25;;;;;;;2.50;2.10;;;;;;;24.86;26.45;94334.53;5094034;28;20268;-66
2022/05/23 10:45:59;;;;;;;2.80;1.77;;;;;;;24.75;26.05;94316.69;5088483;28;20227;-64
2022/05/23 10:48:46;;;;;;;3.38;1.77;;;;;;;24.86;26.70;94321.91;5094731;28;20227;-66
2022/05/23 10:51:27;;;;;;;5.13;1.80;;;;;;;25.23;26.75;94317.59;5086414;28;20232;-64
2022/05/23 10:54:14;;;;;;;4.22;1.80;;;;;;;25.53;25.71;94315.06;5089990;28;20223;-64
2022/05/23 10:57:23;;;;;;;2.45;1.85;;;;;;;25.61;25.03;94307.53;5066106;28;20283;-67
2022/05/23 10:59:57;;;;;;;2.28;1.60;;;;;;;25.72;24.45;94314.63;5076284;28;20226;-62
2022/05/23 11:02:22;;;;;;;2.35;1.52;;;;;;;25.74;24.14;94299.00;5093650;28;20260;-67
2022/05/23 11:05:15;;;;;;;2.40;1.70;;;;;;;25.48;24.73;94298.91;5071883;28;20219;-63
2022/05/23 11:07:54;;;;;;;3.22;2.10;;;;;;;25.52;24.63;94308.06;5085194;28;20409;-67
2022/05/23 11:10:30;;;;;;;2.10;1.58;;;;;;;25.72;24.25;94304.66;5088940;28;20330;-68
2022/05/23 11:13:04;;;;;;;2.80;1.63;;;;;;;25.90;24.59;94300.72;5066956;28;20314;-67
2022/05/23 11:15:54;;;;;;;3.65;1.80;;;;;;;26.22;24.16;94294.28;5072893;28;20227;-66
2022/05/23 11:18:50;;;;;;;1.90;1.75;;;;;;;26.15;23.76;94301.84;5069674;28;20288;-68
2022/05/23 11:21:28;;;;;;;2.80;1.80;;;;;;;26.16;24.34;94298.88;5060424;28;20219;-66
2022/05/23 11:24:01;;;;;;;1.40;1.30;;;;;;;26.30;23.53;94304.59;5083293;28;20257;-68
2022/05/23 11:26:31;;;;;;;2.85;1.70;;;;;;;26.43;23.46;94297.03;5074108;28;20207;-67
2022/05/23 11:35:10;;;;;;;3.42;1.55;;;;;;;26.67;22.49;94295.44;5087636;28;20231;-64
2022/05/23 11:37:44;;;;;;;9.77;1.83;;;;;;;26.69;22.88;94301.38;5063519;28;20269;-67
2022/05/23 11:40:32;;;;;;;2.20;1.40;;;;;;;26.74;22.49;94297.88;5088445;28;20236;-69
2022/05/23 11:43:06;;;;;;;21.58;2.45;;;;;;;26.87;22.84;94308.13;5003893;28;20323;-61
2022/05/23 11:48:39;;;;;;;3.90;1.90;;;;;;;27.14;22.30;94312.41;5005152;28;20331;-62
2022/05/23 11:51:23;;;;;;;2.72;1.70;;;;;;;27.48;22.29;94307.25;5007216;28;20223;-62
2022/05/23 11:54:29;;;;;;;3.30;1.70;;;;;;;27.54;22.21;94292.63;5004830;28;20317;-64
2022/05/23 11:57:00;;;;;;;2.08;1.40;;;;;;;27.55;22.19;94296.94;4907667;29;20255;-68
2022/05/23 11:59:26;;;;;;;3.70;1.88;;;;;;;27.78;22.03;94294.72;4907689;29;20241;-65
2022/05/23 12:02:06;;;;;;;4.68;1.85;;;;;;;27.71;22.07;94293.09;4908547;29;20349;-68
2022/05/23 12:04:33;;;;;;;2.50;1.75;;;;;;;27.48;22.27;94308.06;4895970;29;20229;-68
2022/05/23 12:06:58;;;;;;;5.15;1.67;;;;;;;27.57;22.65;94302.09;4907347;29;20230;-62
2022/05/23 12:09:36;;;;;;;2.60;1.90;;;;;;;27.84;22.17;94299.03;4893195;29;20226;-62
2022/05/23 12:12:27;;;;;;;3.05;1.73;;;;;;;27.67;21.84;94302.84;4893701;29;20356;-68
2022/05/23 12:14:54;;;;;;;4.00;1.95;;;;;;;27.10;22.78;94298.66;4905349;29;20287;-64
2022/05/23 12:17:30;;;;;;;3.55;1.95;;;;;;;26.63;23.00;94296.28;4902007;29;20269;-62
2022/05/23 12:19:58;;;;;;;2.35;1.80;;;;;;;26.82;22.33;94311.63;4937259;28;20219;-62
2022/05/23 12:22:32;;;;;;;2.88;1.83;;;;;;;27.09;22.46;94291.66;4961369;28;20231;-68
2022/05/23 12:25:02;;;;;;;3.25;1.80;;;;;;;27.54;22.07;94294.53;4981183;28;20231;-61
2022/05/23 12:27:42;;;;;;;2.22;1.60;;;;;;;27.58;21.68;94303.69;4994204;28;20233;-68
2022/05/23 12:30:17;;;;;;;3.58;1.83;;;;;;;28.01;21.87;94290.56;4970472;28;20608;-68
2022/05/23 12:32:43;;;;;;;12.82;2.00;;;;;;;28.22;20.89;94288.56;5018411;28;20227;-62
2022/05/23 12:35:10;;;;;;;3.35;2.08;;;;;;;28.75;20.68;94276.03;5080166;28;20215;-67
2022/05/23 12:37:43;;;;;;;3.45;2.13;;;;;;;28.84;20.36;94283.53;5086735;28;20232;-65
2022/05/23 12:40:41;;;;;;;5.53;2.25;;;;;;;28.53;20.78;94283.78;5080596;28;20303;-66
2022/05/23 12:43:38;;;;;;;1.83;1.70;;;;;;;28.22;20.99;94277.75;5010199;28;20312;-65
2022/05/23 12:46:28;;;;;;;2.50;1.83;;;;;;;27.97;21.56;94284.13;5008578;28;20233;-65
2022/05/23 12:49:18;;;;;;;3.00;2.20;;;;;;;28.65;20.72;94278.81;5031148;28;20226;-68
2022/05/23 12:51:59;;;;;;;2.80;2.13;;;;;;;29.02;20.30;94290.94;5033731;28;20234;-65